createdAt,value
2023-05-03T00:00:53.397Z,23.4
2023-05-03T00:06:11.630Z,23.4
2023-05-03T00:11:30.183Z,23.4
2023-05-03T00:16:48.724Z,23.4
2023-05-03T00:22:07.272Z,23.4
2023-05-03T00:27:25.984Z,23.4
2023-05-03T00:32:46.781Z,23.4
2023-05-03T00:38:04.954Z,23.4
2023-05-03T00:43:23.106Z,23.4
2023-05-03T00:48:41.511Z,23.4
2023-05-03T00:54:00.197Z,23.4
2023-05-03T00:59:18.327Z,23.4
2023-05-03T01:04:36.568Z,23.4
2023-05-03T01:09:39.094Z,23.4
2023-05-03T01:14:57.278Z,23.4
2023-05-03T01:20:15.650Z,23.4
2023-05-03T01:25:34.197Z,23.4
2023-05-03T01:30:52.362Z,23.5
2023-05-03T01:36:10.701Z,23.4
2023-05-03T01:41:28.877Z,23.4
2023-05-03T01:46:47.220Z,23.4
2023-05-03T01:52:05.404Z,23.4
2023-05-03T01:57:23.987Z,23.4
2023-05-03T02:02:47.615Z,23.5
2023-05-03T02:08:06.013Z,23.4
2023-05-03T02:13:24.183Z,23.5
2023-05-03T02:18:42.453Z,23.5
2023-05-03T02:24:00.587Z,23.4
2023-05-03T02:29:18.560Z,23.5
2023-05-03T02:34:36.542Z,23.5
2023-05-03T02:39:54.700Z,23.5
2023-05-03T02:45:13.069Z,23.5
2023-05-03T02:50:31.389Z,23.5
2023-05-03T02:55:49.907Z,23.5
2023-05-03T03:01:08.168Z,23.5
2023-05-03T03:06:26.475Z,23.5
2023-05-03T03:11:44.716Z,23.5
2023-05-03T03:17:03.125Z,23.5
2023-05-03T03:22:21.469Z,23.5
2023-05-03T03:27:40.305Z,23.5
2023-05-03T03:32:58.513Z,23.5
2023-05-03T03:38:16.793Z,23.5
2023-05-03T03:43:35.183Z,23.5
2023-05-03T03:48:53.377Z,23.5
2023-05-03T03:54:11.701Z,23.5
2023-05-03T03:59:29.957Z,23.5
2023-05-03T04:04:48.301Z,23.5
2023-05-03T04:10:06.793Z,23.5
2023-05-03T04:15:25.016Z,23.5
2023-05-03T04:20:43.410Z,23.5
2023-05-03T04:26:04.949Z,23.5
2023-05-03T04:31:24.885Z,23.5
2023-05-03T04:36:43.669Z,23.5
2023-05-03T04:42:01.941Z,23.5
2023-05-03T04:47:20.286Z,23.6
2023-05-03T04:52:38.627Z,23.6
2023-05-03T04:57:57.083Z,23.6
2023-05-03T05:03:15.530Z,23.6
2023-05-03T05:08:34.237Z,23.6
2023-05-03T05:13:54.956Z,23.6
2023-05-03T05:19:13.204Z,23.6
2023-05-03T05:24:31.664Z,23.6
2023-05-03T05:29:49.988Z,23.6
2023-05-03T05:35:08.212Z,23.6
2023-05-03T05:40:10.766Z,23.6
2023-05-03T05:45:28.918Z,23.6
2023-05-03T05:50:47.149Z,23.6
2023-05-03T05:56:05.553Z,23.6
2023-05-03T06:01:23.951Z,23.6
2023-05-03T06:06:42.455Z,23.6
2023-05-03T06:12:01.226Z,23.6
2023-05-03T06:17:19.670Z,23.5
2023-05-03T06:22:38.145Z,23.5
2023-05-03T06:27:56.833Z,23.5
2023-05-03T06:33:15.233Z,23.5
2023-05-03T06:38:33.811Z,23.5
2023-05-03T06:43:52.564Z,23.5
2023-05-03T06:49:11.303Z,23.5
2023-05-03T06:54:29.780Z,23.5
2023-05-03T06:59:48.271Z,23.5
2023-05-03T07:05:06.530Z,23.5
2023-05-03T07:10:24.797Z,23.5
2023-05-03T07:15:43.003Z,23.5
2023-05-03T07:21:01.312Z,23.5
2023-05-03T07:26:19.755Z,23.4
2023-05-03T07:31:37.974Z,23.4
2023-05-03T07:36:56.115Z,23.4
2023-05-03T07:42:14.668Z,23.4
2023-05-03T07:47:33.243Z,23.4
2023-05-03T07:52:51.488Z,23.4
2023-05-03T07:58:10.047Z,23.4
2023-05-03T08:03:28.505Z,23.4
2023-05-03T08:08:46.901Z,23.4
2023-05-03T08:14:05.122Z,23.4
2023-05-03T08:19:23.496Z,23.4
2023-05-03T08:24:42.196Z,23.4
2023-05-03T08:30:01.065Z,23.4
2023-05-03T08:35:19.877Z,23.5
2023-05-03T08:40:38.202Z,23.5
2023-05-03T08:45:56.650Z,23.5
2023-05-03T08:51:14.621Z,23.5
2023-05-03T08:56:33.035Z,23.5
2023-05-03T09:01:54.991Z,23.5
2023-05-03T09:07:13.584Z,23.6
2023-05-03T09:12:31.717Z,23.6
2023-05-03T09:17:50.042Z,23.6
2023-05-03T09:23:11.860Z,23.6
2023-05-03T09:28:30.032Z,23.6
2023-05-03T09:33:48.433Z,23.6
2023-05-03T09:39:06.826Z,23.7
2023-05-03T09:44:25.237Z,23.7
2023-05-03T09:49:43.699Z,23.7
2023-05-03T09:55:05.631Z,23.7
2023-05-03T10:00:27.054Z,23.7
2023-05-03T10:05:49.576Z,23.7
2023-05-03T10:11:07.927Z,23.7
2023-05-03T10:16:26.387Z,23.7
2023-05-03T10:21:45.146Z,23.7
2023-05-03T10:27:03.805Z,23.7
2023-05-03T10:32:22.306Z,23.7
2023-05-03T10:37:40.754Z,23.7
2023-05-03T10:42:59.316Z,23.8
2023-05-03T10:48:17.475Z,23.8
2023-05-03T10:53:35.770Z,23.8
2023-05-03T10:58:54.144Z,23.8
2023-05-03T11:04:12.155Z,23.8
2023-05-03T11:09:30.781Z,23.8
2023-05-03T11:14:49.145Z,23.8
2023-05-03T11:20:07.667Z,23.8
2023-05-03T11:25:26.150Z,23.8
2023-05-03T11:30:45.177Z,23.7
2023-05-03T11:36:03.563Z,23.7
2023-05-03T11:41:21.901Z,23.7
2023-05-03T11:46:40.538Z,23.7
2023-05-03T11:51:59.157Z,23.7
2023-05-03T11:57:20.832Z,23.7
2023-05-03T12:02:43.606Z,23.7
2023-05-03T12:08:03.065Z,23.8
2023-05-03T12:13:26.010Z,23.8
2023-05-03T12:18:48.739Z,23.8
2023-05-03T12:24:10.100Z,23.7
2023-05-03T12:29:30.102Z,23.4
2023-05-03T12:35:03.041Z,23.1
2023-05-03T12:40:34.993Z,22.8
2023-05-03T12:46:31.969Z,22.5
2023-05-03T12:52:35.102Z,22.4
2023-05-03T13:15:39.985Z,22.3
2023-05-03T13:20:58.477Z,22.4
2023-05-03T13:26:16.893Z,22.4
2023-05-03T13:31:35.153Z,22.5
2023-05-03T13:36:53.853Z,22.5
2023-05-03T13:42:12.223Z,22.5
2023-05-03T13:48:13.423Z,22.6
2023-05-03T13:53:37.826Z,22.6
2023-05-03T13:58:56.425Z,22.6
2023-05-03T14:04:14.851Z,22.7
2023-05-03T14:09:33.644Z,22.7
2023-05-03T14:14:52.544Z,22.7
2023-05-03T14:20:10.822Z,22.8
2023-05-03T14:25:29.560Z,22.8
2023-05-03T14:30:48.269Z,22.8
2023-05-03T14:36:06.697Z,22.8
2023-05-03T14:41:25.118Z,22.8
2023-05-03T14:46:43.682Z,22.9
2023-05-03T14:52:02.029Z,22.9
2023-05-03T14:57:21.057Z,22.8
2023-05-03T15:02:39.729Z,22.9
2023-05-03T15:07:58.416Z,22.9
2023-05-03T15:13:17.699Z,22.8
2023-05-03T15:18:36.154Z,22.9
2023-05-03T15:23:54.327Z,22.9
2023-05-03T15:29:12.907Z,22.9
2023-05-03T15:34:31.179Z,23
2023-05-03T15:39:49.526Z,23
2023-05-03T15:45:07.754Z,23.1
2023-05-03T15:50:25.906Z,23.1
2023-05-03T15:55:47.280Z,23.1
2023-05-03T16:01:05.655Z,23.1
2023-05-03T16:06:23.919Z,23.1
2023-05-03T16:11:42.091Z,22.8
2023-05-03T16:17:03.558Z,22.8
2023-05-03T16:22:22.074Z,22.9
2023-05-03T16:27:40.559Z,22.9
2023-05-03T16:32:58.967Z,22.9
2023-05-03T16:38:17.249Z,23
2023-05-03T16:43:35.985Z,23
2023-05-03T16:48:54.704Z,23
2023-05-03T16:54:13.110Z,23
2023-05-03T16:59:31.622Z,23
2023-05-03T17:04:50.256Z,23
2023-05-03T17:10:09.013Z,23
2023-05-03T17:15:27.132Z,23
2023-05-03T17:20:45.619Z,23
2023-05-03T17:26:04.575Z,23
2023-05-03T17:31:22.927Z,23
2023-05-03T17:36:41.169Z,23
2023-05-03T17:41:59.282Z,23.1
2023-05-03T17:47:17.614Z,23.1
2023-05-03T17:52:36.065Z,23.1
2023-05-03T17:57:54.879Z,23.1
2023-05-03T18:03:13.359Z,23.1
2023-05-03T18:08:32.084Z,23.1
2023-05-03T18:13:50.483Z,23.1
2023-05-03T18:19:08.819Z,23.1
2023-05-03T18:24:27.582Z,23.1
2023-05-03T18:29:46.009Z,23
2023-05-03T18:35:04.229Z,23.1
2023-05-03T18:40:22.266Z,23.1
2023-05-03T18:45:40.604Z,23.1
2023-05-03T18:50:59.997Z,23.1
2023-05-03T18:56:18.816Z,23.1
2023-05-03T19:01:37.244Z,23.1
2023-05-03T19:06:56.357Z,23.1
2023-05-03T19:12:00.446Z,23.1
2023-05-03T19:17:19.113Z,23.1
2023-05-03T19:22:37.232Z,23.1
2023-05-03T19:27:55.958Z,23.1
2023-05-03T19:33:14.978Z,23.1
2023-05-03T19:38:32.955Z,23.1
2023-05-03T19:43:51.265Z,23.1
2023-05-03T19:49:09.689Z,23.1
2023-05-03T19:54:28.004Z,23.1
2023-05-03T19:59:46.984Z,23.1
2023-05-03T20:05:05.345Z,23.1
2023-05-03T20:10:23.686Z,23.1
2023-05-03T20:15:41.924Z,23.1
2023-05-03T20:21:00.147Z,23.2
2023-05-03T20:26:18.573Z,23.2
2023-05-03T20:31:36.758Z,23.2
2023-05-03T20:36:55.002Z,23.2
2023-05-03T20:42:13.286Z,23.2
2023-05-03T20:47:32.069Z,23.2
2023-05-03T20:52:50.355Z,23.2
2023-05-03T20:58:08.688Z,23.2
2023-05-03T21:03:27.442Z,23.2
2023-05-03T21:08:46.136Z,23.2
2023-05-03T21:14:04.265Z,23.2
2023-05-03T21:19:22.433Z,23.2
2023-05-03T21:24:40.615Z,23.2
2023-05-03T21:29:58.787Z,23.2
2023-05-03T21:35:17.059Z,23.2
2023-05-03T21:40:35.645Z,23.2
2023-05-03T21:45:56.930Z,23.2
2023-05-03T21:51:15.139Z,23.2
2023-05-03T21:56:33.710Z,23.2
2023-05-03T22:01:51.991Z,23.2
2023-05-03T22:07:10.380Z,23.2
2023-05-03T22:12:28.923Z,23.2
2023-05-03T22:17:47.273Z,23.2
2023-05-03T22:23:05.807Z,23.2
2023-05-03T22:28:23.796Z,23.2
2023-05-03T22:33:42.130Z,23.2
2023-05-03T22:39:00.141Z,23.1
2023-05-03T22:44:18.567Z,23.2
2023-05-03T22:49:36.907Z,23.1
2023-05-03T22:54:55.137Z,23.2
2023-05-03T23:00:13.544Z,23.2
2023-05-03T23:05:31.891Z,23.2
2023-05-03T23:10:49.885Z,23.2
2023-05-03T23:16:08.644Z,23.2
2023-05-03T23:21:26.969Z,23.2
2023-05-03T23:26:45.839Z,23.2
2023-05-03T23:32:05.511Z,23.1
2023-05-03T23:37:24.813Z,23.1
2023-05-03T23:42:42.967Z,23.2
2023-05-03T23:48:01.430Z,23.2
2023-05-03T23:53:19.942Z,23.2
2023-05-03T23:58:38.158Z,23.2
